Bookmark and Share
Track history (hours):
 

Triumph

More information available from US FCC via Universal Licensing System and Coast Guard Vessel Documentation Center.

Last reported at 2014-Apr-19 04:33 UTC. Time now 2014-Apr-19 05:11 UTC.
Position N 49°21' W 123°50'.

Length 24 m; draft 6 m.

Type: Tug. MMSI: 367103880.

NotesDate/timePositionNaut miles runAvg speedWind from/ knotsBaromVisibWave heightAir tempDewpointWater temp
2014-Apr-19 04:33N 49°21' W 123°50'8 8.4
2014-Apr-19 03:33N 49°16' W 123°40'8 7.9
2014-Apr-19 02:33N 49°11' W 123°31'8 8.1
2014-Apr-19 01:33N 49°05' W 123°22'8 8.4
2014-Apr-19 00:33N 48°59' W 123°12'8 8.5
2014-Apr-18 23:33N 48°54' W 123°03'8 7.7
2014-Apr-18 22:31N 48°49' W 122°53'7 7.4
2014-Apr-18 21:33N 48°44' W 122°45'6 6.0
2014-Apr-18 20:33N 48°38' W 122°43'4 4.0
2014-Apr-18 19:33N 48°34' W 122°45'3 3.4
2014-Apr-18 18:33N 48°31' W 122°44'4 3.6
2014-Apr-18 17:33N 48°28' W 122°44'6 5.4
2014-Apr-18 16:23N 48°21' W 122°45'23 6.0
2014-Apr-18 12:33N 47°59' W 122°35'2 6.0
2014-Apr-18 12:14N 47°58' W 122°33'4 6.3
2014-Apr-18 11:33N 47°55' W 122°29'1 7.4
2014-Apr-18 11:29N 47°54' W 122°28'7 7.2
2014-Apr-18 10:33N 47°48' W 122°26'1 7.6
2014-Apr-18 10:24N 47°46' W 122°26'6 7.4
2014-Apr-18 09:33N 47°40' W 122°27'1 7.7
2014-Apr-18 09:24N 47°39' W 122°27'6 7.4
2014-Apr-18 08:33N 47°33' W 122°27'1 6.9
2014-Apr-18 08:29N 47°32' W 122°28'7 8.1
2014-Apr-18 07:33N 47°25' W 122°31'8 8.2
2014-Apr-18 06:33N 47°17' W 122°32'9 8.6
2014-Apr-18 05:33N 47°10' W 122°39'2 1.8
2014-Apr-18 04:33N 47°08' W 122°39'0 0.0
2014-Apr-18 03:27N 47°08' W 122°39'0 0.0
2014-Apr-18 02:33N 47°08' W 122°39'0 0.0
2014-Apr-18 01:33N 47°08' W 122°39'0 0.0
2014-Apr-18 00:30N 47°08' W 122°39'0 0.0
2014-Apr-17 23:29N 47°08' W 122°39'0 0.0
2014-Apr-17 22:33N 47°08' W 122°39'0 0.3
2014-Apr-17 21:32N 47°08' W 122°39'5 4.6
2014-Apr-17 20:32N 47°12' W 122°36'6 6.1
2014-Apr-17 19:33N 47°18' W 122°33'6 5.7
2014-Apr-17 18:33N 47°24' W 122°32'4 7.1
2014-Apr-17 17:58N 47°28' W 122°31'3 7.2
2014-Apr-17 17:33N 47°30' W 122°29'2 7.1
2014-Apr-17 17:20N 47°32' W 122°28'6 7.3
2014-Apr-17 16:33N 47°36' W 122°23'0 5.0
2014-Apr-17 16:30N 47°36' W 122°22'2 2.0
2014-Apr-17 15:33N 47°34' W 122°21'0 0.0
2014-Apr-17 15:30N 47°34' W 122°21'0 0.0
2014-Apr-15 20:37N 47°34' W 122°21'0 0.1
2014-Apr-15 20:33N 47°34' W 122°21'0 0.2
2014-Apr-15 20:32N 47°34' W 122°21'1 1.2
2014-Apr-15 19:33N 47°35' W 122°21'0 0.0
2014-Apr-15 19:32N 47°35' W 122°21'3 0.1
2014-Apr-13 22:33N 47°37' W 122°24'7 6.8
2014-Apr-13 21:33N 47°43' W 122°27'8 7.7
2014-Apr-13 20:34N 47°51' W 122°29'8 7.6
2014-Apr-13 19:32N 47°57' W 122°35'8 7.5
2014-Apr-13 18:28N 48°05' W 122°40'7 6.5
2014-Apr-13 17:19N 48°11' W 122°47'5 5.6
2014-Apr-13 16:25N 48°16' W 122°48'6 7.2
2014-Apr-13 15:33N 48°22' W 122°46'8 8.1
2014-Apr-13 14:34N 48°30' W 122°45'8 8.1
2014-Apr-13 13:34N 48°38' W 122°44'7 6.6
2014-Apr-13 12:33N 48°44' W 122°47'7 7.2
2014-Apr-13 11:33N 48°48' W 122°55'7 7.4
2014-Apr-13 10:33N 48°53' W 123°05'7 7.0
2014-Apr-13 09:33N 48°57' W 123°13'7 6.7
2014-Apr-13 08:33N 49°03' W 123°19'5 5.2
2014-Apr-13 07:33N 49°07' W 123°16'6 6.2
2014-Apr-13 06:33N 49°07' W 123°06'3 3.5
2014-Apr-13 05:34N 49°09' W 123°02'0 0.0
2014-Apr-13 04:33N 49°09' W 123°02'0 0.0
2014-Apr-13 03:33N 49°09' W 123°02'0 0.0
2014-Apr-13 02:33N 49°09' W 123°02'0 0.0
2014-Apr-13 01:33N 49°09' W 123°02'0 0.0
2014-Apr-13 00:33N 49°09' W 123°02'0 0.0
2014-Apr-12 23:33N 49°09' W 123°02'0 0.0
2014-Apr-12 22:33N 49°09' W 123°02'0 0.0
2014-Apr-12 21:33N 49°09' W 123°02'0 0.0
2014-Apr-12 20:34N 49°09' W 123°02'0 0.0
2014-Apr-12 19:33N 49°09' W 123°02'0 0.0
2014-Apr-12 18:33N 49°09' W 123°02'0 0.0
2014-Apr-12 17:33N 49°09' W 123°02'0 0.0
2014-Apr-12 16:33N 49°09' W 123°02'0 0.0
2014-Apr-12 15:33N 49°09' W 123°02'0 0.0
2014-Apr-12 14:34N 49°09' W 123°02'0 0.0
2014-Apr-12 13:33N 49°09' W 123°02'0 0.0
2014-Apr-12 12:33N 49°09' W 123°02'0 0.0
2014-Apr-12 11:33N 49°09' W 123°02'0 0.0
2014-Apr-12 10:33N 49°09' W 123°02'1 0.7
2014-Apr-12 09:33N 49°08' W 123°03'7 7.1
2014-Apr-12 08:33N 49°08' W 123°14'5 5.2
2014-Apr-12 07:33N 49°03' W 123°18'9 8.9
2014-Apr-12 06:34N 48°57' W 123°09'9 8.8
2014-Apr-12 05:33N 48°52' W 122°58'9 8.6
2014-Apr-12 04:33N 48°46' W 122°48'8 7.9
2014-Apr-12 03:33N 48°39' W 122°43'8 7.8
2014-Apr-12 02:33N 48°31' W 122°44'8 8.3
2014-Apr-12 01:32N 48°23' W 122°44'19 8.1
2014-Apr-11 23:12N 48°04' W 122°38'6 9.1
2014-Apr-11 22:33N 47°59' W 122°35'4 8.3
2014-Apr-11 22:04N 47°56' W 122°30'4 7.8
2014-Apr-11 21:34N 47°53' W 122°28'015.2
2014-Apr-11 21:33N 47°53' W 122°28'8 8.4
2014-Apr-11 20:34N 47°44' W 122°26'018.9
2014-Apr-11 20:33N 47°44' W 122°26'8 7.8
2014-Apr-11 19:33N 47°37' W 122°23'0 0.0
2014-Apr-11 19:33N 47°37' W 122°23'  

Dump ship's entire track history

sailing weather and tide predictions

Triumph — WDC9555 — position and weather